createdAt,value
2022-09-24T00:00:11.837Z,15.80
2022-09-24T00:02:43.875Z,14.15
2022-09-24T00:05:15.901Z,14.80
2022-09-24T00:07:43.866Z,15.45
2022-09-24T00:10:14.900Z,15.02
2022-09-24T00:12:42.889Z,16.00
2022-09-24T00:15:11.396Z,14.75
2022-09-24T00:17:46.148Z,14.70
2022-09-24T00:20:15.805Z,16.15
2022-09-24T00:22:43.752Z,15.68
2022-09-24T00:25:29.301Z,15.27
2022-09-24T00:27:57.317Z,15.43
2022-09-24T00:30:25.390Z,14.93
2022-09-24T00:32:54.573Z,15.20
2022-09-24T00:35:25.268Z,15.32
2022-09-24T00:37:54.696Z,15.00
2022-09-24T00:40:27.969Z,14.80
2022-09-24T00:42:57.987Z,14.70
2022-09-24T00:45:28.654Z,14.93
2022-09-24T00:48:04.556Z,15.10
2022-09-24T00:50:36.589Z,15.10
2022-09-24T00:53:06.926Z,15.57
2022-09-24T00:55:37.079Z,14.20
2022-09-24T00:58:09.437Z,14.80
2022-09-24T01:00:40.958Z,13.77
2022-09-24T01:03:14.236Z,14.90
2022-09-24T01:05:43.948Z,14.38
2022-09-24T01:08:23.962Z,15.15
2022-09-24T01:11:14.186Z,14.00
2022-09-24T01:14:03.546Z,14.10
2022-09-24T01:16:39.103Z,14.80
2022-09-24T01:19:21.649Z,14.48
2022-09-24T01:21:56.370Z,13.90
2022-09-24T01:24:46.722Z,13.95
2022-09-24T01:27:19.973Z,14.20
2022-09-24T01:30:06.663Z,14.53
2022-09-24T01:32:38.344Z,14.47
2022-09-24T01:35:13.993Z,14.30
2022-09-24T01:37:48.204Z,13.30
2022-09-24T01:40:18.506Z,14.20
2022-09-24T01:42:47.645Z,14.57
2022-09-24T01:45:20.123Z,13.37
2022-09-24T01:47:51.525Z,13.40
2022-09-24T01:50:21.024Z,12.90
2022-09-24T01:52:53.478Z,13.77
2022-09-24T01:55:25.729Z,12.05
2022-09-24T01:57:57.851Z,11.25
2022-09-24T02:00:28.772Z,10.80
2022-09-24T02:03:01.387Z,9.45
2022-09-24T02:05:36.753Z,9.35
2022-09-24T02:08:09.000Z,10.55
2022-09-24T02:10:46.460Z,11.00
2022-09-24T02:13:18.190Z,11.00
2022-09-24T02:15:52.814Z,11.05
2022-09-24T02:18:29.184Z,11.50
2022-09-24T02:20:59.797Z,11.60
2022-09-24T02:23:32.409Z,12.13
2022-09-24T02:26:02.820Z,11.55
2022-09-24T02:28:32.413Z,12.70
2022-09-24T02:31:06.721Z,12.52
2022-09-24T02:33:55.185Z,13.70
2022-09-24T02:36:25.313Z,12.85
2022-09-24T02:38:53.625Z,13.00
2022-09-24T02:41:24.038Z,12.48
2022-09-24T02:43:52.174Z,11.95
2022-09-24T02:46:22.977Z,12.07
2022-09-24T02:48:55.725Z,12.00
2022-09-24T02:51:23.723Z,12.05
2022-09-24T02:53:58.049Z,11.80
2022-09-24T02:56:28.567Z,11.95
2022-09-24T02:58:56.758Z,13.23
2022-09-24T03:01:26.301Z,12.70
2022-09-24T03:03:54.309Z,11.98
2022-09-24T03:06:22.703Z,12.30
2022-09-24T03:08:50.649Z,12.25
2022-09-24T03:11:19.077Z,13.45
2022-09-24T03:13:51.516Z,12.52
2022-09-24T03:16:23.386Z,13.10
2022-09-24T03:18:52.934Z,12.93
2022-09-24T03:21:22.298Z,11.63
2022-09-24T03:23:50.758Z,12.85
2022-09-24T03:26:18.877Z,13.20
2022-09-24T03:28:46.903Z,13.60
2022-09-24T03:31:14.352Z,12.90
2022-09-24T03:33:44.739Z,11.85
2022-09-24T03:36:17.083Z,11.80
2022-09-24T03:38:46.856Z,11.45
2022-09-24T03:41:15.194Z,11.88
2022-09-24T03:43:43.378Z,11.38
2022-09-24T03:46:13.296Z,11.80
2022-09-24T03:48:42.713Z,12.23
2022-09-24T03:51:13.568Z,11.93
2022-09-24T03:53:41.681Z,12.23
2022-09-24T03:56:11.886Z,11.60
2022-09-24T03:58:40.520Z,11.60
2022-09-24T04:01:09.250Z,11.88
2022-09-24T04:03:43.256Z,11.15
2022-09-24T04:06:11.309Z,10.90
2022-09-24T04:08:40.623Z,10.45
2022-09-24T04:11:08.825Z,10.00
2022-09-24T04:13:38.040Z,11.02
2022-09-24T04:16:06.493Z,12.77
2022-09-24T04:18:38.885Z,12.15
2022-09-24T04:21:12.831Z,13.30
2022-09-24T04:23:47.320Z,12.98
2022-09-24T04:26:17.355Z,13.85
2022-09-24T04:28:50.940Z,11.10
2022-09-24T04:31:22.227Z,10.68
2022-09-24T04:33:53.375Z,15.38
2022-09-24T04:36:22.038Z,14.50
2022-09-24T04:38:51.561Z,17.02
2022-09-24T04:41:19.640Z,16.80
2022-09-24T04:43:47.617Z,11.60
2022-09-24T04:46:16.194Z,11.70
2022-09-24T04:48:44.222Z,11.25
2022-09-24T04:51:12.220Z,11.13
2022-09-24T04:53:40.668Z,10.77
2022-09-24T04:56:11.985Z,9.65
2022-09-24T04:58:40.637Z,8.30
2022-09-24T05:01:08.747Z,9.27
2022-09-24T05:03:36.877Z,8.35
2022-09-24T05:06:05.038Z,8.05
2022-09-24T05:08:33.101Z,8.38
2022-09-24T05:11:02.411Z,7.40
2022-09-24T05:13:31.730Z,7.68
2022-09-24T05:16:01.166Z,7.28
2022-09-24T05:18:29.340Z,8.38
2022-09-24T05:20:57.608Z,10.70
2022-09-24T05:23:25.685Z,12.80
2022-09-24T05:26:11.265Z,15.20
2022-09-24T05:28:40.985Z,15.15
2022-09-24T05:31:10.714Z,15.70
2022-09-24T05:33:38.912Z,20.13
2022-09-24T05:36:07.360Z,17.17
2022-09-24T05:38:35.367Z,16.63
2022-09-24T05:41:03.954Z,18.45
2022-09-24T05:43:32.145Z,19.17
2022-09-24T05:46:01.576Z,18.38
2022-09-24T05:48:29.763Z,19.15
2022-09-24T05:50:57.804Z,18.55
2022-09-24T05:53:25.797Z,18.70
2022-09-24T05:55:53.798Z,19.25
2022-09-24T05:58:21.887Z,17.90
2022-09-24T06:00:50.369Z,19.80
2022-09-24T06:03:21.032Z,20.67
2022-09-24T06:05:52.917Z,20.33
2022-09-24T06:08:21.919Z,20.65
2022-09-24T06:10:50.208Z,19.70
2022-09-24T06:13:20.883Z,19.08
2022-09-24T06:15:48.952Z,19.87
2022-09-24T06:18:17.018Z,20.67
2022-09-24T06:20:47.045Z,20.92
2022-09-24T06:23:15.040Z,20.98
2022-09-24T06:25:43.367Z,20.85
2022-09-24T06:28:11.430Z,21.50
2022-09-24T06:30:41.314Z,20.60
2022-09-24T06:33:11.923Z,21.23
2022-09-24T06:35:42.080Z,21.25
2022-09-24T06:38:13.902Z,21.02
2022-09-24T06:40:42.962Z,22.00
2022-09-24T06:43:12.418Z,20.33
2022-09-24T06:45:41.714Z,19.42
2022-09-24T06:48:12.263Z,18.53
2022-09-24T06:50:42.287Z,18.30
2022-09-24T06:53:13.221Z,18.85
2022-09-24T06:55:41.942Z,17.85
2022-09-24T06:58:12.096Z,15.63
2022-09-24T07:00:40.312Z,15.47
2022-09-24T07:03:11.821Z,14.60
2022-09-24T07:05:43.588Z,14.27
2022-09-24T07:08:13.493Z,13.37
2022-09-24T07:10:44.348Z,13.20
2022-09-24T07:13:14.197Z,14.80
2022-09-24T07:15:42.556Z,14.50
2022-09-24T07:18:10.735Z,12.70
2022-09-24T07:20:39.103Z,13.60
2022-09-24T07:23:07.846Z,12.50
2022-09-24T07:25:38.261Z,12.87
2022-09-24T07:28:08.333Z,29.03
2022-09-24T07:30:37.333Z,30.60
2022-09-24T07:33:06.008Z,32.03
2022-09-24T07:35:34.376Z,34.33
2022-09-24T07:38:04.591Z,34.23
2022-09-24T07:40:33.616Z,34.90
2022-09-24T07:43:14.302Z,37.67
2022-09-24T07:45:43.300Z,37.50
2022-09-24T07:48:12.850Z,16.20
2022-09-24T07:50:42.669Z,15.47
2022-09-24T07:53:12.171Z,15.70
2022-09-24T07:55:41.191Z,18.03
2022-09-24T07:58:14.099Z,16.00
2022-09-24T08:00:42.642Z,37.27
2022-09-24T08:03:10.815Z,33.87
2022-09-24T08:05:45.306Z,53.83
2022-09-24T08:08:13.777Z,63.67
2022-09-24T08:10:42.150Z,17.10
2022-09-24T08:13:11.540Z,15.67
2022-09-24T08:15:39.587Z,14.13
2022-09-24T08:18:07.787Z,19.10
2022-09-24T08:20:38.055Z,18.60
2022-09-24T08:23:07.908Z,17.73
2022-09-24T08:25:35.900Z,19.15
2022-09-24T08:28:04.546Z,18.52
2022-09-24T08:30:34.956Z,17.67
2022-09-24T08:33:04.895Z,18.58
2022-09-24T08:35:34.198Z,17.08
2022-09-24T08:38:03.444Z,16.13
2022-09-24T08:40:36.870Z,19.83
2022-09-24T08:43:17.220Z,19.98
2022-09-24T08:46:18.624Z,17.08
2022-09-24T08:48:51.520Z,15.65
2022-09-24T08:51:22.106Z,16.85
2022-09-24T08:53:55.968Z,19.27
2022-09-24T08:56:28.001Z,16.83
2022-09-24T08:59:00.595Z,14.07
2022-09-24T09:01:39.423Z,15.93
2022-09-24T09:04:25.905Z,15.82
2022-09-24T09:07:05.903Z,42.42
2022-09-24T09:09:43.247Z,51.92
2022-09-24T09:12:16.973Z,54.17
2022-09-24T09:14:50.100Z,59.45
2022-09-24T09:17:33.478Z,61.03
2022-09-24T09:20:04.963Z,70.65
2022-09-24T09:22:50.215Z,161.90
2022-09-24T09:25:23.761Z,136.18
2022-09-24T09:27:54.358Z,77.00
2022-09-24T09:30:22.873Z,165.77
2022-09-24T09:33:15.219Z,177.52
2022-09-24T09:35:50.039Z,74.53
2022-09-24T09:38:26.349Z,75.75
2022-09-24T09:41:04.391Z,77.60
2022-09-24T09:43:32.463Z,76.97
2022-09-24T09:46:12.414Z,74.15
2022-09-24T09:48:46.365Z,77.47
2022-09-24T09:51:23.418Z,78.53
2022-09-24T09:53:58.601Z,72.72
2022-09-24T09:56:28.859Z,78.80
2022-09-24T09:59:07.177Z,81.03
2022-09-24T10:01:37.628Z,82.25
2022-09-24T10:04:07.571Z,81.78
2022-09-24T10:06:37.346Z,83.00
2022-09-24T10:09:13.257Z,86.03
2022-09-24T10:11:42.298Z,82.25
2022-09-24T10:14:13.551Z,85.05
2022-09-24T10:16:44.178Z,86.93
2022-09-24T10:19:21.286Z,85.75
2022-09-24T10:21:49.977Z,108.85
2022-09-24T10:24:22.489Z,84.30
2022-09-24T10:26:51.789Z,89.00
2022-09-24T10:29:40.785Z,88.18
2022-09-24T10:32:16.629Z,84.90
2022-09-24T10:34:56.523Z,115.38
2022-09-24T10:37:24.727Z,86.80
2022-09-24T10:39:59.995Z,87.03
2022-09-24T10:42:29.594Z,87.55
2022-09-24T10:45:01.246Z,85.13
2022-09-24T10:47:39.178Z,85.60
2022-09-24T10:50:24.515Z,175.20
2022-09-24T10:52:55.331Z,83.45
2022-09-24T10:55:39.164Z,89.32
2022-09-24T10:58:23.297Z,85.25
2022-09-24T11:01:00.227Z,84.88
2022-09-24T11:03:56.756Z,124.75
2022-09-24T11:06:42.883Z,130.32
2022-09-24T11:09:24.714Z,114.15
2022-09-24T11:12:05.280Z,149.77
2022-09-24T11:14:53.071Z,129.65
2022-09-24T11:17:35.342Z,184.65
2022-09-24T11:20:28.831Z,84.93
2022-09-24T11:23:29.673Z,87.57
2022-09-24T11:26:07.823Z,87.78
2022-09-24T11:29:03.575Z,81.50
2022-09-24T11:31:40.153Z,202.70
2022-09-24T11:34:23.021Z,129.60
2022-09-24T11:37:04.613Z,80.60
2022-09-24T11:39:50.173Z,80.10
2022-09-24T11:42:25.427Z,78.60
2022-09-24T11:45:19.210Z,78.75
2022-09-24T11:48:11.097Z,137.95
2022-09-24T11:50:49.222Z,82.90
2022-09-24T11:53:27.114Z,83.28
2022-09-24T11:56:00.009Z,80.03
2022-09-24T11:58:31.449Z,76.65
2022-09-24T12:01:07.002Z,78.28
2022-09-24T12:03:41.273Z,81.85
2022-09-24T12:06:14.120Z,107.00
2022-09-24T12:08:47.742Z,78.20
2022-09-24T12:11:23.042Z,77.00
2022-09-24T12:13:55.571Z,79.07
2022-09-24T12:16:27.541Z,85.18
2022-09-24T12:18:59.962Z,75.13
2022-09-24T12:21:31.948Z,185.18
2022-09-24T12:24:06.280Z,178.15
2022-09-24T12:26:39.245Z,81.18
2022-09-24T12:29:48.829Z,78.22
2022-09-24T12:32:40.474Z,84.50
2022-09-24T12:35:18.945Z,77.40
2022-09-24T12:37:50.845Z,83.22
2022-09-24T12:40:44.527Z,80.90
2022-09-24T12:43:25.246Z,76.72
2022-09-24T12:45:57.709Z,77.05
2022-09-24T12:48:27.874Z,75.75
2022-09-24T12:51:00.466Z,76.22
2022-09-24T12:53:34.810Z,78.97
2022-09-24T12:56:05.018Z,77.97
2022-09-24T12:58:39.663Z,78.78
2022-09-24T13:01:15.615Z,75.90
2022-09-24T13:03:47.214Z,74.70
2022-09-24T13:06:31.041Z,73.72
2022-09-24T13:08:59.340Z,41.95
2022-09-24T13:11:30.929Z,39.53
2022-09-24T13:14:05.565Z,38.40
2022-09-24T13:16:39.772Z,36.10
2022-09-24T13:19:37.727Z,35.45
2022-09-24T13:22:06.590Z,31.13
2022-09-24T13:24:47.630Z,113.90
2022-09-24T13:27:24.988Z,6.68
2022-09-24T13:30:07.277Z,5.97
2022-09-24T13:32:41.291Z,6.15
2022-09-24T13:35:21.101Z,5.30
2022-09-24T13:37:55.427Z,5.20
2022-09-24T13:40:29.285Z,3.65
2022-09-24T13:43:04.172Z,4.18
2022-09-24T13:45:37.256Z,4.85
2022-09-24T13:48:14.252Z,4.28
2022-09-24T13:50:50.469Z,5.22
2022-09-24T13:53:23.257Z,5.72
2022-09-24T13:55:54.746Z,4.40
2022-09-24T13:58:29.672Z,4.97
2022-09-24T14:01:00.911Z,5.03
2022-09-24T14:03:31.974Z,3.85
2022-09-24T14:06:00.473Z,4.03
2022-09-24T14:08:30.116Z,4.15
2022-09-24T14:11:08.981Z,3.90
2022-09-24T14:13:41.638Z,4.68
2022-09-24T14:16:14.241Z,3.65
2022-09-24T14:18:42.688Z,4.38
2022-09-24T14:21:16.233Z,5.90
2022-09-24T14:23:48.420Z,4.10
2022-09-24T14:26:27.434Z,3.75
2022-09-24T14:28:57.427Z,3.30
2022-09-24T14:31:27.099Z,3.45
2022-09-24T14:33:55.415Z,2.88
2022-09-24T14:36:29.080Z,4.53
2022-09-24T14:39:02.739Z,3.47
2022-09-24T14:41:33.400Z,4.13
2022-09-24T14:44:04.206Z,3.63
2022-09-24T14:46:37.169Z,3.97
2022-09-24T14:49:07.571Z,7.07
2022-09-24T14:51:36.760Z,5.15
2022-09-24T14:54:28.632Z,4.22
2022-09-24T14:56:56.774Z,1.90
2022-09-24T14:59:32.981Z,3.15
2022-09-24T15:02:16.676Z,2.92
2022-09-24T15:04:48.625Z,4.25
2022-09-24T15:07:22.420Z,2.78
2022-09-24T15:09:51.982Z,4.57
2022-09-24T15:12:22.614Z,3.00
2022-09-24T15:15:00.105Z,3.58
2022-09-24T15:17:33.271Z,7.45
2022-09-24T15:20:01.865Z,2.63
2022-09-24T15:22:31.343Z,3.70
2022-09-24T15:25:01.887Z,3.47
2022-09-24T15:27:32.405Z,2.15
2022-09-24T15:30:01.930Z,2.47
2022-09-24T15:32:34.618Z,3.20
2022-09-24T15:35:08.409Z,3.55
2022-09-24T15:37:40.380Z,4.78
2022-09-24T15:40:16.698Z,4.68
2022-09-24T15:42:44.735Z,3.05
2022-09-24T15:45:18.182Z,3.88
2022-09-24T15:47:47.595Z,4.38
2022-09-24T15:50:15.870Z,3.10
2022-09-24T15:52:50.081Z,5.32
2022-09-24T15:55:20.826Z,5.20
2022-09-24T15:57:49.211Z,4.15
2022-09-24T16:00:19.556Z,4.28
2022-09-24T16:02:52.243Z,4.10
2022-09-24T16:05:20.853Z,3.65
2022-09-24T16:07:49.468Z,4.15
2022-09-24T16:10:18.483Z,4.13
2022-09-24T16:12:46.558Z,4.32
2022-09-24T16:15:16.018Z,3.42
2022-09-24T16:17:44.150Z,4.05
2022-09-24T16:20:13.684Z,3.42
2022-09-24T16:22:41.671Z,3.00
2022-09-24T16:25:10.000Z,4.15
2022-09-24T16:27:38.549Z,3.13
2022-09-24T16:30:10.760Z,4.10
2022-09-24T16:32:41.086Z,4.15
2022-09-24T16:35:13.753Z,3.80
2022-09-24T16:37:43.194Z,2.58
2022-09-24T16:40:13.094Z,3.90
2022-09-24T16:42:41.237Z,3.20
2022-09-24T16:45:12.485Z,5.25
2022-09-24T16:47:40.614Z,3.70
2022-09-24T16:50:09.430Z,5.60
2022-09-24T16:52:37.398Z,5.00
2022-09-24T16:55:08.072Z,5.35
2022-09-24T16:57:38.291Z,5.45
2022-09-24T17:00:08.415Z,4.07
2022-09-24T17:02:36.744Z,4.63
2022-09-24T17:05:05.410Z,4.88
2022-09-24T17:07:33.667Z,4.57
2022-09-24T17:10:13.163Z,5.75
2022-09-24T17:12:44.247Z,2.53
2022-09-24T17:15:12.981Z,5.80
2022-09-24T17:17:44.499Z,5.93
2022-09-24T17:20:16.774Z,5.63
2022-09-24T17:22:44.742Z,3.17
2022-09-24T17:25:12.740Z,4.85
2022-09-24T17:27:42.181Z,4.13
2022-09-24T17:30:13.174Z,5.55
2022-09-24T17:32:41.197Z,4.15
2022-09-24T17:35:10.125Z,3.40
2022-09-24T17:37:38.499Z,5.03
2022-09-24T17:40:08.042Z,4.30
2022-09-24T17:42:36.230Z,5.80
2022-09-24T17:45:07.584Z,4.07
2022-09-24T17:47:49.530Z,4.68
2022-09-24T17:50:17.694Z,5.03
2022-09-24T17:52:45.673Z,6.75
2022-09-24T17:55:13.717Z,4.50
2022-09-24T17:57:41.705Z,4.10
2022-09-24T18:00:12.808Z,4.80
2022-09-24T18:02:40.833Z,5.70
2022-09-24T18:05:10.748Z,4.68
2022-09-24T18:07:38.718Z,4.65
2022-09-24T18:10:07.480Z,6.07
2022-09-24T18:12:35.457Z,6.40
2022-09-24T18:15:03.429Z,4.22
2022-09-24T18:17:32.903Z,3.97
2022-09-24T18:20:00.929Z,4.45
2022-09-24T18:22:29.057Z,2.67
2022-09-24T18:25:00.879Z,5.60
2022-09-24T18:27:28.994Z,4.72
2022-09-24T18:29:58.308Z,4.38
2022-09-24T18:32:27.209Z,3.63
2022-09-24T18:34:56.596Z,4.45
2022-09-24T18:37:24.605Z,6.75
2022-09-24T18:39:52.584Z,5.43
2022-09-24T18:42:20.582Z,7.18
2022-09-24T18:44:48.693Z,5.20
2022-09-24T18:47:17.624Z,4.65
2022-09-24T18:49:47.618Z,4.70
2022-09-24T18:52:17.021Z,5.28
2022-09-24T18:54:45.063Z,5.75
2022-09-24T18:57:13.079Z,3.85
2022-09-24T18:59:44.862Z,4.68
2022-09-24T19:02:13.510Z,4.40
2022-09-24T19:04:41.846Z,5.47
2022-09-24T19:07:10.729Z,5.30
2022-09-24T19:09:40.175Z,5.43
2022-09-24T19:12:08.865Z,5.38
2022-09-24T19:14:37.885Z,11.13
2022-09-24T19:17:07.148Z,8.60
2022-09-24T19:19:35.160Z,7.25
2022-09-24T19:22:03.173Z,3.95
2022-09-24T19:24:31.198Z,5.07
2022-09-24T19:27:00.679Z,3.42
2022-09-24T19:29:29.169Z,4.63
2022-09-24T19:31:57.150Z,4.40
2022-09-24T19:34:25.216Z,5.97
2022-09-24T19:36:55.017Z,4.35
2022-09-24T19:39:23.112Z,4.93
2022-09-24T19:41:52.973Z,4.18
2022-09-24T19:44:22.438Z,2.92
2022-09-24T19:46:50.433Z,5.32
2022-09-24T19:49:18.451Z,5.72
2022-09-24T19:51:46.493Z,4.53
2022-09-24T19:54:14.620Z,5.65
2022-09-24T19:56:42.670Z,5.63
2022-09-24T19:59:13.297Z,2.50
2022-09-24T20:01:43.208Z,4.32
2022-09-24T20:04:11.393Z,4.20
2022-09-24T20:06:39.556Z,6.10
2022-09-24T20:09:08.109Z,3.88
2022-09-24T20:11:36.390Z,4.38
2022-09-24T20:14:06.071Z,4.85
2022-09-24T20:16:34.406Z,6.43
2022-09-24T20:19:04.783Z,4.55
2022-09-24T20:21:35.519Z,5.65
2022-09-24T20:24:04.526Z,6.22
2022-09-24T20:26:50.408Z,4.10
2022-09-24T20:29:19.676Z,5.70
2022-09-24T20:31:52.296Z,5.15
2022-09-24T20:34:23.407Z,4.40
2022-09-24T20:36:52.027Z,4.38
2022-09-24T20:39:20.771Z,4.95
2022-09-24T20:41:49.945Z,4.40
2022-09-24T20:44:18.517Z,5.57
2022-09-24T20:46:46.604Z,5.45
2022-09-24T20:49:22.335Z,4.60
2022-09-24T20:51:57.259Z,2.83
2022-09-24T20:54:29.286Z,4.18
2022-09-24T20:56:57.788Z,4.80
2022-09-24T20:59:26.649Z,6.93
2022-09-24T21:01:55.280Z,3.90
2022-09-24T21:04:23.955Z,4.35
2022-09-24T21:06:55.226Z,4.25
2022-09-24T21:09:23.415Z,4.88
2022-09-24T21:11:54.762Z,3.78
2022-09-24T21:14:23.435Z,6.18
2022-09-24T21:16:55.052Z,4.57
2022-09-24T21:19:23.249Z,5.95
2022-09-24T21:21:52.255Z,4.43
2022-09-24T21:24:27.643Z,3.83
2022-09-24T21:27:00.123Z,5.00
2022-09-24T21:29:28.203Z,5.47
2022-09-24T21:31:56.178Z,3.10
2022-09-24T21:34:24.212Z,4.00
2022-09-24T21:36:53.654Z,4.82
2022-09-24T21:39:24.476Z,5.45
2022-09-24T21:41:54.328Z,4.43
2022-09-24T21:44:22.761Z,3.75
2022-09-24T21:46:52.562Z,8.23
2022-09-24T21:49:21.210Z,5.18
2022-09-24T21:51:49.455Z,6.28
2022-09-24T21:54:19.195Z,5.60
2022-09-24T21:56:48.835Z,5.32
2022-09-24T21:59:40.577Z,5.55
2022-09-24T22:02:11.239Z,5.53
2022-09-24T22:04:41.348Z,7.85
2022-09-24T22:07:09.520Z,4.75
2022-09-24T22:09:38.501Z,5.13
2022-09-24T22:12:07.927Z,5.53
2022-09-24T22:14:37.214Z,4.10
2022-09-24T22:17:05.697Z,4.68
2022-09-24T22:19:34.097Z,4.82
2022-09-24T22:22:02.993Z,3.90
2022-09-24T22:24:31.711Z,7.03
2022-09-24T22:26:59.813Z,5.47
2022-09-24T22:29:29.492Z,4.90
2022-09-24T22:31:57.509Z,5.78
2022-09-24T22:34:43.056Z,4.68
2022-09-24T22:37:11.239Z,4.53
2022-09-24T22:39:39.224Z,6.38
2022-09-24T22:42:07.371Z,4.93
2022-09-24T22:44:36.779Z,7.05
2022-09-24T22:47:04.757Z,5.97
2022-09-24T22:49:32.931Z,7.38
2022-09-24T22:52:01.353Z,4.55
2022-09-24T22:54:30.617Z,5.47
2022-09-24T22:56:58.965Z,5.78
2022-09-24T22:59:26.967Z,8.43
2022-09-24T23:01:56.383Z,4.18
2022-09-24T23:04:24.393Z,7.50
2022-09-24T23:06:54.529Z,5.63
2022-09-24T23:09:22.724Z,6.55
2022-09-24T23:11:51.711Z,4.38
2022-09-24T23:14:19.708Z,6.30
2022-09-24T23:16:47.753Z,4.93
2022-09-24T23:19:18.918Z,6.15
2022-09-24T23:21:47.587Z,5.38
2022-09-24T23:24:17.786Z,5.90
2022-09-24T23:26:46.182Z,4.43
2022-09-24T23:29:15.864Z,4.45
2022-09-24T23:31:44.252Z,4.97
2022-09-24T23:34:14.237Z,3.78
2022-09-24T23:36:46.212Z,4.93
2022-09-24T23:39:14.401Z,4.43
2022-09-24T23:41:42.504Z,4.22
2022-09-24T23:44:10.840Z,4.93
2022-09-24T23:46:39.011Z,5.80
2022-09-24T23:49:07.120Z,5.53
2022-09-24T23:51:35.234Z,4.60
2022-09-24T23:54:04.925Z,4.97
2022-09-24T23:56:32.907Z,4.20
2022-09-24T23:59:01.005Z,5.88
